sensor_id;sensor_type;location;lat;lon;timestamp;temperature;humidity
23347;DHT22;36852;45.466;11.066;2022-11-04T00:02:23;17.30;99.90
23347;DHT22;36852;45.466;11.066;2022-11-04T00:04:51;17.30;99.90
23347;DHT22;36852;45.466;11.066;2022-11-04T00:07:22;17.30;99.90
23347;DHT22;36852;45.466;11.066;2022-11-04T00:10:08;17.30;99.90
23347;DHT22;36852;45.466;11.066;2022-11-04T00:12:36;17.30;99.90
23347;DHT22;36852;45.466;11.066;2022-11-04T00:15:05;17.30;99.90
23347;DHT22;36852;45.466;11.066;2022-11-04T00:17:51;17.30;99.90
23347;DHT22;36852;45.466;11.066;2022-11-04T00:20:20;17.30;99.90
23347;DHT22;36852;45.466;11.066;2022-11-04T00:23:03;17.20;99.90
23347;DHT22;36852;45.466;11.066;2022-11-04T00:25:50;17.30;99.90
23347;DHT22;36852;45.466;11.066;2022-11-04T00:28:36;17.20;99.90
23347;DHT22;36852;45.466;11.066;2022-11-04T00:31:10;17.20;99.90
23347;DHT22;36852;45.466;11.066;2022-11-04T00:33:57;17.20;99.90
23347;DHT22;36852;45.466;11.066;2022-11-04T00:36:25;17.20;99.90
23347;DHT22;36852;45.466;11.066;2022-11-04T00:38:54;17.10;99.90
23347;DHT22;36852;45.466;11.066;2022-11-04T00:41:22;17.20;99.90
23347;DHT22;36852;45.466;11.066;2022-11-04T00:44:03;17.20;99.90
23347;DHT22;36852;45.466;11.066;2022-11-04T00:46:32;17.20;99.90
23347;DHT22;36852;45.466;11.066;2022-11-04T00:49:01;17.20;99.90
23347;DHT22;36852;45.466;11.066;2022-11-04T00:51:29;17.20;99.90
23347;DHT22;36852;45.466;11.066;2022-11-04T00:53:56;17.20;99.90
23347;DHT22;36852;45.466;11.066;2022-11-04T00:56:24;17.30;99.90
23347;DHT22;36852;45.466;11.066;2022-11-04T00:58:52;17.20;99.90
23347;DHT22;36852;45.466;11.066;2022-11-04T01:01:20;17.30;99.90
23347;DHT22;36852;45.466;11.066;2022-11-04T01:03:51;17.30;99.90
23347;DHT22;36852;45.466;11.066;2022-11-04T01:06:20;17.30;99.90
23347;DHT22;36852;45.466;11.066;2022-11-04T01:08:48;17.30;99.90
23347;DHT22;36852;45.466;11.066;2022-11-04T01:11:18;17.30;99.90
23347;DHT22;36852;45.466;11.066;2022-11-04T01:13:51;17.30;99.90
23347;DHT22;36852;45.466;11.066;2022-11-04T01:16:19;17.30;99.90
23347;DHT22;36852;45.466;11.066;2022-11-04T01:18:47;17.40;99.90
23347;DHT22;36852;45.466;11.066;2022-11-04T01:21:16;17.40;99.90
23347;DHT22;36852;45.466;11.066;2022-11-04T01:23:44;17.40;99.90
23347;DHT22;36852;45.466;11.066;2022-11-04T01:26:14;17.40;99.90
23347;DHT22;36852;45.466;11.066;2022-11-04T01:28:43;17.40;99.90
23347;DHT22;36852;45.466;11.066;2022-11-04T01:31:18;17.40;99.90
23347;DHT22;36852;45.466;11.066;2022-11-04T01:33:42;17.40;99.90
23347;DHT22;36852;45.466;11.066;2022-11-04T01:36:13;17.40;99.90
23347;DHT22;36852;45.466;11.066;2022-11-04T01:38:41;17.40;99.90
23347;DHT22;36852;45.466;11.066;2022-11-04T01:41:26;17.40;99.90
23347;DHT22;36852;45.466;11.066;2022-11-04T01:49:07;17.40;99.90
23347;DHT22;36852;45.466;11.066;2022-11-04T01:51:33;17.40;99.90
23347;DHT22;36852;45.466;11.066;2022-11-04T01:54:03;17.40;99.90
23347;DHT22;36852;45.466;11.066;2022-11-04T01:56:33;17.50;99.90
23347;DHT22;36852;45.466;11.066;2022-11-04T01:59:04;17.40;99.90
23347;DHT22;36852;45.466;11.066;2022-11-04T02:01:33;17.40;99.90
23347;DHT22;36852;45.466;11.066;2022-11-04T02:04:01;17.40;99.90
23347;DHT22;36852;45.466;11.066;2022-11-04T02:06:48;17.40;99.90
23347;DHT22;36852;45.466;11.066;2022-11-04T02:09:17;17.50;99.90
23347;DHT22;36852;45.466;11.066;2022-11-04T02:11:45;17.40;99.90
23347;DHT22;36852;45.466;11.066;2022-11-04T02:14:32;17.40;99.90
23347;DHT22;36852;45.466;11.066;2022-11-04T02:20:19;17.40;99.90
23347;DHT22;36852;45.466;11.066;2022-11-04T02:31:42;17.40;99.90
23347;DHT22;36852;45.466;11.066;2022-11-04T02:40:48;17.40;99.90
23347;DHT22;36852;45.466;11.066;2022-11-04T02:42:32;17.40;99.90
23347;DHT22;36852;45.466;11.066;2022-11-04T02:47:42;17.40;99.90
23347;DHT22;36852;45.466;11.066;2022-11-04T02:50:31;17.40;99.90
23347;DHT22;36852;45.466;11.066;2022-11-04T02:55:46;17.40;99.90
23347;DHT22;36852;45.466;11.066;2022-11-04T02:58:22;17.40;99.90
23347;DHT22;36852;45.466;11.066;2022-11-04T03:00:46;17.40;99.90
23347;DHT22;36852;45.466;11.066;2022-11-04T03:03:20;17.40;99.90
23347;DHT22;36852;45.466;11.066;2022-11-04T03:05:50;17.40;99.90
23347;DHT22;36852;45.466;11.066;2022-11-04T03:08:33;17.40;99.90
23347;DHT22;36852;45.466;11.066;2022-11-04T03:11:03;17.40;99.90
23347;DHT22;36852;45.466;11.066;2022-11-04T03:13:35;17.50;99.90
23347;DHT22;36852;45.466;11.066;2022-11-04T03:16:05;17.50;99.90
23347;DHT22;36852;45.466;11.066;2022-11-04T03:21:09;17.50;99.90
23347;DHT22;36852;45.466;11.066;2022-11-04T03:23:38;17.50;99.90
23347;DHT22;36852;45.466;11.066;2022-11-04T03:26:14;17.50;99.90
23347;DHT22;36852;45.466;11.066;2022-11-04T03:28:45;17.50;99.90
23347;DHT22;36852;45.466;11.066;2022-11-04T03:31:22;17.50;99.90
23347;DHT22;36852;45.466;11.066;2022-11-04T03:33:51;17.50;99.90
23347;DHT22;36852;45.466;11.066;2022-11-04T03:36:21;17.50;99.90
23347;DHT22;36852;45.466;11.066;2022-11-04T03:38:50;17.50;99.90
23347;DHT22;36852;45.466;11.066;2022-11-04T03:41:58;17.50;99.90
23347;DHT22;36852;45.466;11.066;2022-11-04T03:43:59;17.50;99.90
23347;DHT22;36852;45.466;11.066;2022-11-04T03:46:27;17.50;99.90
23347;DHT22;36852;45.466;11.066;2022-11-04T03:48:57;17.50;99.90
23347;DHT22;36852;45.466;11.066;2022-11-04T03:51:25;17.50;99.90
23347;DHT22;36852;45.466;11.066;2022-11-04T03:53:54;17.50;99.90
23347;DHT22;36852;45.466;11.066;2022-11-04T04:01:51;17.50;99.90
23347;DHT22;36852;45.466;11.066;2022-11-04T04:04:34;17.50;99.90
23347;DHT22;36852;45.466;11.066;2022-11-04T04:07:05;17.50;99.90
23347;DHT22;36852;45.466;11.066;2022-11-04T04:09:38;17.50;99.90
23347;DHT22;36852;45.466;11.066;2022-11-04T04:14:50;17.50;99.90
23347;DHT22;36852;45.466;11.066;2022-11-04T04:17:36;17.50;99.90
23347;DHT22;36852;45.466;11.066;2022-11-04T04:20:17;17.50;99.90
23347;DHT22;36852;45.466;11.066;2022-11-04T04:23:02;17.50;99.90
23347;DHT22;36852;45.466;11.066;2022-11-04T04:25:27;17.60;99.90
23347;DHT22;36852;45.466;11.066;2022-11-04T04:28:17;17.50;99.90
23347;DHT22;36852;45.466;11.066;2022-11-04T04:30:46;17.60;99.90
23347;DHT22;36852;45.466;11.066;2022-11-04T04:33:15;17.60;99.90
23347;DHT22;36852;45.466;11.066;2022-11-04T04:35:53;17.60;99.90
23347;DHT22;36852;45.466;11.066;2022-11-04T04:38:23;17.60;99.90
23347;DHT22;36852;45.466;11.066;2022-11-04T04:41:27;17.60;99.90
23347;DHT22;36852;45.466;11.066;2022-11-04T04:44:27;17.60;99.90
23347;DHT22;36852;45.466;11.066;2022-11-04T04:47:21;17.60;99.90
23347;DHT22;36852;45.466;11.066;2022-11-04T04:49:59;17.60;99.90
23347;DHT22;36852;45.466;11.066;2022-11-04T04:52:33;17.60;99.90
23347;DHT22;36852;45.466;11.066;2022-11-04T04:55:01;17.60;99.90
23347;DHT22;36852;45.466;11.066;2022-11-04T04:57:31;17.60;99.90
23347;DHT22;36852;45.466;11.066;2022-11-04T04:59:59;17.60;99.90
23347;DHT22;36852;45.466;11.066;2022-11-04T05:02:27;17.60;99.90
23347;DHT22;36852;45.466;11.066;2022-11-04T05:04:56;17.60;99.90
23347;DHT22;36852;45.466;11.066;2022-11-04T05:07:25;17.60;99.90
23347;DHT22;36852;45.466;11.066;2022-11-04T05:09:54;17.60;99.90
23347;DHT22;36852;45.466;11.066;2022-11-04T05:12:22;17.60;99.90
23347;DHT22;36852;45.466;11.066;2022-11-04T05:14:51;17.60;99.90
23347;DHT22;36852;45.466;11.066;2022-11-04T05:17:22;17.60;99.90
23347;DHT22;36852;45.466;11.066;2022-11-04T05:19:50;17.60;99.90
23347;DHT22;36852;45.466;11.066;2022-11-04T05:22:18;17.60;99.90
23347;DHT22;36852;45.466;11.066;2022-11-04T05:24:47;17.60;99.90
23347;DHT22;36852;45.466;11.066;2022-11-04T05:27:15;17.60;99.90
23347;DHT22;36852;45.466;11.066;2022-11-04T05:29:43;17.60;99.90
23347;DHT22;36852;45.466;11.066;2022-11-04T05:32:14;17.60;99.90
23347;DHT22;36852;45.466;11.066;2022-11-04T05:34:41;17.60;99.90
23347;DHT22;36852;45.466;11.066;2022-11-04T05:37:09;17.60;99.90
23347;DHT22;36852;45.466;11.066;2022-11-04T05:39:39;17.60;99.90
23347;DHT22;36852;45.466;11.066;2022-11-04T05:42:07;17.60;99.90
23347;DHT22;36852;45.466;11.066;2022-11-04T05:44:35;17.60;99.90
23347;DHT22;36852;45.466;11.066;2022-11-04T05:47:03;17.60;99.90
23347;DHT22;36852;45.466;11.066;2022-11-04T05:49:31;17.60;99.90
23347;DHT22;36852;45.466;11.066;2022-11-04T05:51:59;17.60;99.90
23347;DHT22;36852;45.466;11.066;2022-11-04T05:54:28;17.60;99.90
23347;DHT22;36852;45.466;11.066;2022-11-04T05:56:56;17.60;99.90
23347;DHT22;36852;45.466;11.066;2022-11-04T05:59:26;17.60;99.90
23347;DHT22;36852;45.466;11.066;2022-11-04T06:01:53;17.60;99.90
23347;DHT22;36852;45.466;11.066;2022-11-04T06:04:21;17.60;99.90
23347;DHT22;36852;45.466;11.066;2022-11-04T06:06:49;17.60;99.90
23347;DHT22;36852;45.466;11.066;2022-11-04T06:09:17;17.60;99.90
23347;DHT22;36852;45.466;11.066;2022-11-04T06:11:45;17.60;99.90
23347;DHT22;36852;45.466;11.066;2022-11-04T06:14:13;17.60;99.90
23347;DHT22;36852;45.466;11.066;2022-11-04T06:16:43;17.60;99.90
23347;DHT22;36852;45.466;11.066;2022-11-04T06:19:11;17.60;99.90
23347;DHT22;36852;45.466;11.066;2022-11-04T06:21:43;17.60;99.90
23347;DHT22;36852;45.466;11.066;2022-11-04T06:24:11;17.60;99.90
23347;DHT22;36852;45.466;11.066;2022-11-04T06:26:40;17.60;99.90
23347;DHT22;36852;45.466;11.066;2022-11-04T06:29:08;17.60;99.90
23347;DHT22;36852;45.466;11.066;2022-11-04T06:31:43;17.60;99.90
23347;DHT22;36852;45.466;11.066;2022-11-04T06:34:11;17.50;99.90
23347;DHT22;36852;45.466;11.066;2022-11-04T06:36:39;17.50;99.90
23347;DHT22;36852;45.466;11.066;2022-11-04T06:39:10;17.50;99.90
23347;DHT22;36852;45.466;11.066;2022-11-04T06:41:39;17.50;99.90
23347;DHT22;36852;45.466;11.066;2022-11-04T06:44:08;17.50;99.90
23347;DHT22;36852;45.466;11.066;2022-11-04T06:46:38;17.50;99.90
23347;DHT22;36852;45.466;11.066;2022-11-04T06:49:16;17.50;99.90
23347;DHT22;36852;45.466;11.066;2022-11-04T06:51:40;17.50;99.90
23347;DHT22;36852;45.466;11.066;2022-11-04T06:54:08;17.40;99.90
23347;DHT22;36852;45.466;11.066;2022-11-04T06:56:36;17.40;99.90
23347;DHT22;36852;45.466;11.066;2022-11-04T06:59:04;17.40;99.90
23347;DHT22;36852;45.466;11.066;2022-11-04T07:01:34;17.30;99.90
23347;DHT22;36852;45.466;11.066;2022-11-04T07:04:03;17.40;99.90
23347;DHT22;36852;45.466;11.066;2022-11-04T07:06:33;17.20;99.90
23347;DHT22;36852;45.466;11.066;2022-11-04T07:09:03;17.20;99.90
23347;DHT22;36852;45.466;11.066;2022-11-04T07:11:31;17.10;99.90
23347;DHT22;36852;45.466;11.066;2022-11-04T07:14:00;16.80;99.90
23347;DHT22;36852;45.466;11.066;2022-11-04T07:16:29;16.40;99.90
23347;DHT22;36852;45.466;11.066;2022-11-04T07:18:57;16.20;99.90
23347;DHT22;36852;45.466;11.066;2022-11-04T07:21:25;15.90;99.90
23347;DHT22;36852;45.466;11.066;2022-11-04T07:23:53;15.80;99.90
23347;DHT22;36852;45.466;11.066;2022-11-04T07:26:24;15.70;99.90
23347;DHT22;36852;45.466;11.066;2022-11-04T07:28:51;15.60;99.90
23347;DHT22;36852;45.466;11.066;2022-11-04T07:31:19;15.50;99.90
23347;DHT22;36852;45.466;11.066;2022-11-04T07:33:52;15.40;99.90
23347;DHT22;36852;45.466;11.066;2022-11-04T07:36:19;15.30;99.90
23347;DHT22;36852;45.466;11.066;2022-11-04T07:38:47;15.20;99.90
23347;DHT22;36852;45.466;11.066;2022-11-04T07:41:17;15.20;99.90
23347;DHT22;36852;45.466;11.066;2022-11-04T07:43:51;15.10;99.90
23347;DHT22;36852;45.466;11.066;2022-11-04T07:46:19;15.00;99.90
23347;DHT22;36852;45.466;11.066;2022-11-04T07:48:47;14.90;99.90
23347;DHT22;36852;45.466;11.066;2022-11-04T07:51:16;14.90;99.90
23347;DHT22;36852;45.466;11.066;2022-11-04T07:53:44;15.00;99.90
23347;DHT22;36852;45.466;11.066;2022-11-04T07:56:12;15.10;99.90
23347;DHT22;36852;45.466;11.066;2022-11-04T07:58:43;15.20;99.90
23347;DHT22;36852;45.466;11.066;2022-11-04T08:01:14;15.30;99.90
23347;DHT22;36852;45.466;11.066;2022-11-04T08:03:42;15.30;99.90
23347;DHT22;36852;45.466;11.066;2022-11-04T08:06:12;15.50;99.90
23347;DHT22;36852;45.466;11.066;2022-11-04T08:08:40;15.60;99.90
23347;DHT22;36852;45.466;11.066;2022-11-04T08:11:12;15.70;99.90
23347;DHT22;36852;45.466;11.066;2022-11-04T08:13:42;15.80;99.90
23347;DHT22;36852;45.466;11.066;2022-11-04T08:16:16;15.90;99.90
23347;DHT22;36852;45.466;11.066;2022-11-04T08:18:45;15.90;99.90
23347;DHT22;36852;45.466;11.066;2022-11-04T08:21:14;16.00;99.90
23347;DHT22;36852;45.466;11.066;2022-11-04T08:23:42;16.10;99.90
23347;DHT22;36852;45.466;11.066;2022-11-04T08:26:17;16.20;99.90
23347;DHT22;36852;45.466;11.066;2022-11-04T08:28:42;16.20;99.90
23347;DHT22;36852;45.466;11.066;2022-11-04T08:33:44;16.30;99.90
23347;DHT22;36852;45.466;11.066;2022-11-04T08:38:44;16.40;99.90
23347;DHT22;36852;45.466;11.066;2022-11-04T08:41:14;16.40;99.90
23347;DHT22;36852;45.466;11.066;2022-11-04T08:43:42;16.40;99.90
23347;DHT22;36852;45.466;11.066;2022-11-04T08:46:11;16.40;99.90
23347;DHT22;36852;45.466;11.066;2022-11-04T08:48:40;16.20;99.90
23347;DHT22;36852;45.466;11.066;2022-11-04T08:51:22;15.80;99.90
23347;DHT22;36852;45.466;11.066;2022-11-04T08:53:46;15.50;99.90
23347;DHT22;36852;45.466;11.066;2022-11-04T08:56:22;15.40;99.90
23347;DHT22;36852;45.466;11.066;2022-11-04T08:58:51;15.20;99.90
23347;DHT22;36852;45.466;11.066;2022-11-04T09:01:20;14.90;99.90
23347;DHT22;36852;45.466;11.066;2022-11-04T09:03:48;14.80;99.90
23347;DHT22;36852;45.466;11.066;2022-11-04T09:06:24;14.80;99.90
23347;DHT22;36852;45.466;11.066;2022-11-04T09:08:52;14.70;99.90
23347;DHT22;36852;45.466;11.066;2022-11-04T09:11:25;14.70;99.90
23347;DHT22;36852;45.466;11.066;2022-11-04T09:13:53;14.80;99.90
23347;DHT22;36852;45.466;11.066;2022-11-04T09:16:20;14.80;99.90
23347;DHT22;36852;45.466;11.066;2022-11-04T09:18:48;14.80;99.90
23347;DHT22;36852;45.466;11.066;2022-11-04T09:21:16;14.80;99.90
23347;DHT22;36852;45.466;11.066;2022-11-04T09:23:46;14.70;99.90
23347;DHT22;36852;45.466;11.066;2022-11-04T09:26:15;14.80;99.90
23347;DHT22;36852;45.466;11.066;2022-11-04T09:28:43;15.00;99.90
23347;DHT22;36852;45.466;11.066;2022-11-04T09:31:14;15.00;99.90
23347;DHT22;36852;45.466;11.066;2022-11-04T09:33:43;15.10;99.90
23347;DHT22;36852;45.466;11.066;2022-11-04T09:36:11;15.00;99.90
23347;DHT22;36852;45.466;11.066;2022-11-04T09:38:40;15.10;99.90
23347;DHT22;36852;45.466;11.066;2022-11-04T09:46:38;15.00;99.90
23347;DHT22;36852;45.466;11.066;2022-11-04T09:49:09;15.00;99.90
23347;DHT22;36852;45.466;11.066;2022-11-04T09:51:39;15.10;99.90
23347;DHT22;36852;45.466;11.066;2022-11-04T09:54:21;15.30;99.90
23347;DHT22;36852;45.466;11.066;2022-11-04T09:56:51;15.40;99.90
23347;DHT22;36852;45.466;11.066;2022-11-04T09:59:26;15.40;99.90
23347;DHT22;36852;45.466;11.066;2022-11-04T10:02:04;15.50;99.90
23347;DHT22;36852;45.466;11.066;2022-11-04T10:10:14;15.70;99.90
23347;DHT22;36852;45.466;11.066;2022-11-04T10:26:46;15.50;99.90
23347;DHT22;36852;45.466;11.066;2022-11-04T10:29:26;15.50;99.90
23347;DHT22;36852;45.466;11.066;2022-11-04T10:32:00;15.60;99.90
23347;DHT22;36852;45.466;11.066;2022-11-04T10:34:35;15.70;99.90
23347;DHT22;36852;45.466;11.066;2022-11-04T10:37:08;15.80;99.90
23347;DHT22;36852;45.466;11.066;2022-11-04T10:39:40;15.90;99.90
23347;DHT22;36852;45.466;11.066;2022-11-04T10:42:19;15.90;99.90
23347;DHT22;36852;45.466;11.066;2022-11-04T10:44:45;16.00;99.90
23347;DHT22;36852;45.466;11.066;2022-11-04T10:50:21;16.20;99.90
23347;DHT22;36852;45.466;11.066;2022-11-04T10:53:01;16.00;99.90
23347;DHT22;36852;45.466;11.066;2022-11-04T10:58:01;15.80;99.90
23347;DHT22;36852;45.466;11.066;2022-11-04T11:00:35;15.70;99.90
23347;DHT22;36852;45.466;11.066;2022-11-04T11:03:32;15.70;99.90
23347;DHT22;36852;45.466;11.066;2022-11-04T11:08:56;15.80;99.90
23347;DHT22;36852;45.466;11.066;2022-11-04T11:11:41;15.90;99.90
23347;DHT22;36852;45.466;11.066;2022-11-04T11:14:29;15.90;99.90
23347;DHT22;36852;45.466;11.066;2022-11-04T11:16:49;15.80;99.90
23347;DHT22;36852;45.466;11.066;2022-11-04T11:19:20;15.90;99.90
23347;DHT22;36852;45.466;11.066;2022-11-04T11:21:52;15.90;99.90
23347;DHT22;36852;45.466;11.066;2022-11-04T11:24:25;15.90;99.90
23347;DHT22;36852;45.466;11.066;2022-11-04T11:26:55;16.00;99.90
23347;DHT22;36852;45.466;11.066;2022-11-04T11:29:29;16.20;99.90
23347;DHT22;36852;45.466;11.066;2022-11-04T11:31:58;16.40;99.90
23347;DHT22;36852;45.466;11.066;2022-11-04T11:34:30;16.50;99.90
23347;DHT22;36852;45.466;11.066;2022-11-04T11:36:59;16.60;99.90
23347;DHT22;36852;45.466;11.066;2022-11-04T11:39:34;16.70;99.90
23347;DHT22;36852;45.466;11.066;2022-11-04T11:42:07;16.80;99.90
23347;DHT22;36852;45.466;11.066;2022-11-04T11:44:38;16.90;99.90
23347;DHT22;36852;45.466;11.066;2022-11-04T11:52:47;17.20;99.90
23347;DHT22;36852;45.466;11.066;2022-11-04T11:55:22;17.30;99.90
23347;DHT22;36852;45.466;11.066;2022-11-04T12:00:49;17.50;99.90
23347;DHT22;36852;45.466;11.066;2022-11-04T12:03:22;17.70;99.90
23347;DHT22;36852;45.466;11.066;2022-11-04T12:14:14;18.20;99.90
23347;DHT22;36852;45.466;11.066;2022-11-04T12:22:22;18.70;99.90
23347;DHT22;36852;45.466;11.066;2022-11-04T12:25:01;18.70;99.90
23347;DHT22;36852;45.466;11.066;2022-11-04T12:30:15;19.00;99.90
23347;DHT22;36852;45.466;11.066;2022-11-04T12:33:05;18.80;99.90
23347;DHT22;36852;45.466;11.066;2022-11-04T12:38:39;18.70;99.90
23347;DHT22;36852;45.466;11.066;2022-11-04T12:41:32;19.00;99.90
23347;DHT22;36852;45.466;11.066;2022-11-04T12:49:46;20.00;96.90
23347;DHT22;36852;45.466;11.066;2022-11-04T12:58:31;20.20;93.90
23347;DHT22;36852;45.466;11.066;2022-11-04T13:01:02;19.90;94.00
23347;DHT22;36852;45.466;11.066;2022-11-04T13:08:52;20.10;88.50
23347;DHT22;36852;45.466;11.066;2022-11-04T13:11:23;20.30;89.30
23347;DHT22;36852;45.466;11.066;2022-11-04T13:14:05;20.20;85.00
23347;DHT22;36852;45.466;11.066;2022-11-04T13:16:37;20.20;83.10
23347;DHT22;36852;45.466;11.066;2022-11-04T13:19:24;20.10;82.60
23347;DHT22;36852;45.466;11.066;2022-11-04T13:21:50;20.00;83.70
23347;DHT22;36852;45.466;11.066;2022-11-04T13:24:29;20.20;84.90
23347;DHT22;36852;45.466;11.066;2022-11-04T13:27:00;20.50;84.90
23347;DHT22;36852;45.466;11.066;2022-11-04T13:29:30;20.70;83.70
23347;DHT22;36852;45.466;11.066;2022-11-04T13:32:19;20.70;82.10
23347;DHT22;36852;45.466;11.066;2022-11-04T13:35:00;20.90;80.20
23347;DHT22;36852;45.466;11.066;2022-11-04T13:40:19;21.20;77.20
23347;DHT22;36852;45.466;11.066;2022-11-04T13:45:24;22.00;74.60
23347;DHT22;36852;45.466;11.066;2022-11-04T13:47:57;22.80;71.90
23347;DHT22;36852;45.466;11.066;2022-11-04T13:50:36;23.30;68.20
23347;DHT22;36852;45.466;11.066;2022-11-04T13:53:07;24.00;65.80
23347;DHT22;36852;45.466;11.066;2022-11-04T13:55:47;24.90;62.00
23347;DHT22;36852;45.466;11.066;2022-11-04T13:58:22;25.90;60.00
23347;DHT22;36852;45.466;11.066;2022-11-04T14:04:00;27.10;55.30
23347;DHT22;36852;45.466;11.066;2022-11-04T14:06:54;27.80;52.60
23347;DHT22;36852;45.466;11.066;2022-11-04T14:14:53;29.30;47.50
23347;DHT22;36852;45.466;11.066;2022-11-04T14:22:54;30.50;43.20
23347;DHT22;36852;45.466;11.066;2022-11-04T14:25:38;30.80;41.60
23347;DHT22;36852;45.466;11.066;2022-11-04T14:33:19;30.40;38.60
23347;DHT22;36852;45.466;11.066;2022-11-04T14:35:54;30.60;39.40
23347;DHT22;36852;45.466;11.066;2022-11-04T14:38:26;30.80;37.50
23347;DHT22;36852;45.466;11.066;2022-11-04T14:43:56;31.20;35.30
23347;DHT22;36852;45.466;11.066;2022-11-04T14:46:27;31.00;34.40
23347;DHT22;36852;45.466;11.066;2022-11-04T14:48:57;31.30;34.50
23347;DHT22;36852;45.466;11.066;2022-11-04T14:51:38;31.50;32.80
23347;DHT22;36852;45.466;11.066;2022-11-04T14:54:07;31.70;33.10
23347;DHT22;36852;45.466;11.066;2022-11-04T14:56:32;31.80;32.80
23347;DHT22;36852;45.466;11.066;2022-11-04T14:59:04;32.20;34.00
23347;DHT22;36852;45.466;11.066;2022-11-04T15:01:36;32.90;33.80
23347;DHT22;36852;45.466;11.066;2022-11-04T15:04:12;33.30;34.10
23347;DHT22;36852;45.466;11.066;2022-11-04T15:06:38;33.40;34.50
23347;DHT22;36852;45.466;11.066;2022-11-04T15:09:22;33.80;33.30
23347;DHT22;36852;45.466;11.066;2022-11-04T15:12:08;34.10;32.80
23347;DHT22;36852;45.466;11.066;2022-11-04T15:14:53;33.80;32.70
23347;DHT22;36852;45.466;11.066;2022-11-04T15:17:25;33.60;33.50
23347;DHT22;36852;45.466;11.066;2022-11-04T15:19:56;33.70;33.30
23347;DHT22;36852;45.466;11.066;2022-11-04T15:22:28;33.60;33.90
23347;DHT22;36852;45.466;11.066;2022-11-04T15:24:59;33.30;35.00
23347;DHT22;36852;45.466;11.066;2022-11-04T15:27:28;32.90;35.70
23347;DHT22;36852;45.466;11.066;2022-11-04T15:29:59;32.40;36.80
23347;DHT22;36852;45.466;11.066;2022-11-04T15:32:27;31.90;38.00
23347;DHT22;36852;45.466;11.066;2022-11-04T15:34:55;31.40;39.20
23347;DHT22;36852;45.466;11.066;2022-11-04T15:37:24;31.10;39.90
23347;DHT22;36852;45.466;11.066;2022-11-04T15:39:55;30.70;40.50
23347;DHT22;36852;45.466;11.066;2022-11-04T15:42:27;30.30;41.30
23347;DHT22;36852;45.466;11.066;2022-11-04T15:54:23;25.90;48.30
23347;DHT22;36852;45.466;11.066;2022-11-04T15:56:06;24.90;50.20
23347;DHT22;36852;45.466;11.066;2022-11-04T15:58:35;24.10;52.10
23347;DHT22;36852;45.466;11.066;2022-11-04T16:01:03;23.40;53.80
23347;DHT22;36852;45.466;11.066;2022-11-04T16:03:31;22.90;55.50
23347;DHT22;36852;45.466;11.066;2022-11-04T16:06:01;22.40;57.80
23347;DHT22;36852;45.466;11.066;2022-11-04T16:08:30;22.10;59.30
23347;DHT22;36852;45.466;11.066;2022-11-04T16:11:17;21.70;62.30
23347;DHT22;36852;45.466;11.066;2022-11-04T16:13:42;21.40;64.90
23347;DHT22;36852;45.466;11.066;2022-11-04T16:18:56;20.80;70.50
23347;DHT22;36852;45.466;11.066;2022-11-04T16:21:31;20.50;71.90
23347;DHT22;36852;45.466;11.066;2022-11-04T16:24:02;20.20;73.90
23347;DHT22;36852;45.466;11.066;2022-11-04T16:26:36;20.10;74.40
23347;DHT22;36852;45.466;11.066;2022-11-04T16:29:12;19.80;76.10
23347;DHT22;36852;45.466;11.066;2022-11-04T16:31:39;19.60;80.80
23347;DHT22;36852;45.466;11.066;2022-11-04T16:34:10;19.50;79.00
23347;DHT22;36852;45.466;11.066;2022-11-04T16:36:39;19.30;80.50
23347;DHT22;36852;45.466;11.066;2022-11-04T16:39:07;19.20;80.70
23347;DHT22;36852;45.466;11.066;2022-11-04T16:41:37;19.10;82.10
23347;DHT22;36852;45.466;11.066;2022-11-04T16:44:14;18.90;83.10
23347;DHT22;36852;45.466;11.066;2022-11-04T16:46:37;18.80;83.60
23347;DHT22;36852;45.466;11.066;2022-11-04T16:49:08;18.70;84.80
23347;DHT22;36852;45.466;11.066;2022-11-04T16:51:36;18.60;86.20
23347;DHT22;36852;45.466;11.066;2022-11-04T16:54:04;18.50;86.90
23347;DHT22;36852;45.466;11.066;2022-11-04T16:56:32;18.40;85.00
23347;DHT22;36852;45.466;11.066;2022-11-04T16:59:00;18.40;84.30
23347;DHT22;36852;45.466;11.066;2022-11-04T17:01:28;18.30;84.50
23347;DHT22;36852;45.466;11.066;2022-11-04T17:03:55;18.30;84.40
23347;DHT22;36852;45.466;11.066;2022-11-04T17:06:23;18.20;85.20
23347;DHT22;36852;45.466;11.066;2022-11-04T17:08:54;18.10;85.30
23347;DHT22;36852;45.466;11.066;2022-11-04T17:11:22;18.00;85.70
23347;DHT22;36852;45.466;11.066;2022-11-04T17:13:50;18.00;85.90
23347;DHT22;36852;45.466;11.066;2022-11-04T17:16:21;17.90;85.80
23347;DHT22;36852;45.466;11.066;2022-11-04T17:18:51;17.80;85.10
23347;DHT22;36852;45.466;11.066;2022-11-04T17:21:21;17.70;85.50
23347;DHT22;36852;45.466;11.066;2022-11-04T17:23:49;17.70;85.90
23347;DHT22;36852;45.466;11.066;2022-11-04T17:26:20;17.70;86.30
23347;DHT22;36852;45.466;11.066;2022-11-04T17:28:48;17.70;86.80
23347;DHT22;36852;45.466;11.066;2022-11-04T17:31:18;17.60;85.70
23347;DHT22;36852;45.466;11.066;2022-11-04T17:33:46;17.60;86.30
23347;DHT22;36852;45.466;11.066;2022-11-04T17:36:16;17.50;87.10
23347;DHT22;36852;45.466;11.066;2022-11-04T17:38:45;17.50;87.00
23347;DHT22;36852;45.466;11.066;2022-11-04T17:41:16;17.40;86.80
23347;DHT22;36852;45.466;11.066;2022-11-04T17:44:02;17.40;87.20
23347;DHT22;36852;45.466;11.066;2022-11-04T17:46:32;17.30;86.50
23347;DHT22;36852;45.466;11.066;2022-11-04T17:51:32;17.30;85.90
23347;DHT22;36852;45.466;11.066;2022-11-04T17:54:00;17.20;87.60
23347;DHT22;36852;45.466;11.066;2022-11-04T17:56:28;17.20;86.80
23347;DHT22;36852;45.466;11.066;2022-11-04T17:58:58;17.20;86.00
23347;DHT22;36852;45.466;11.066;2022-11-04T18:01:27;17.10;86.60
23347;DHT22;36852;45.466;11.066;2022-11-04T18:03:54;17.10;86.00
23347;DHT22;36852;45.466;11.066;2022-11-04T18:06:23;17.00;85.80
23347;DHT22;36852;45.466;11.066;2022-11-04T18:08:53;17.00;86.60
23347;DHT22;36852;45.466;11.066;2022-11-04T18:11:22;16.90;87.30
23347;DHT22;36852;45.466;11.066;2022-11-04T18:14:09;16.90;86.80
23347;DHT22;36852;45.466;11.066;2022-11-04T18:16:43;16.90;87.70
23347;DHT22;36852;45.466;11.066;2022-11-04T18:19:12;16.90;87.90
23347;DHT22;36852;45.466;11.066;2022-11-04T18:21:39;16.90;88.50
23347;DHT22;36852;45.466;11.066;2022-11-04T18:24:07;16.90;88.90
23347;DHT22;36852;45.466;11.066;2022-11-04T18:26:36;16.80;89.60
23347;DHT22;36852;45.466;11.066;2022-11-04T18:29:06;16.80;89.10